createdAt,value
2023-05-21T00:07:18.663Z,23.10
2023-05-21T00:09:45.398Z,23.10
2023-05-21T00:12:12.005Z,23.10
2023-05-21T00:14:38.742Z,23.10
2023-05-21T00:17:05.421Z,23.10
2023-05-21T00:19:33.733Z,23.10
2023-05-21T00:22:03.631Z,23.10
2023-05-21T00:24:30.284Z,23.10
2023-05-21T00:26:57.024Z,23.10
2023-05-21T00:31:56.025Z,23.10
2023-05-21T00:34:22.956Z,23.10
2023-05-21T00:36:56.011Z,23.10
2023-05-21T00:39:23.227Z,23.10
2023-05-21T00:41:50.135Z,23.10
2023-05-21T00:49:25.859Z,23.10
2023-05-21T00:56:56.791Z,23.10
2023-05-21T01:01:56.700Z,23.10
2023-05-21T01:04:24.068Z,23.10
2023-05-21T01:14:34.146Z,23.10
2023-05-21T01:19:35.426Z,23.10
2023-05-21T01:22:06.700Z,23.10
2023-05-21T01:24:33.816Z,23.10
2023-05-21T01:27:02.037Z,23.10
2023-05-21T01:29:28.777Z,23.10
2023-05-21T01:34:50.900Z,23.10
2023-05-21T01:37:46.763Z,23.10
2023-05-21T01:40:41.778Z,23.10
2023-05-21T01:43:09.348Z,23.10
2023-05-21T01:45:39.883Z,23.10
2023-05-21T01:48:08.912Z,23.10
2023-05-21T01:53:08.809Z,23.00
2023-05-21T01:55:39.392Z,23.00
2023-05-21T01:58:05.962Z,23.00
2023-05-21T02:00:34.560Z,23.10
2023-05-21T02:03:01.301Z,23.00
2023-05-21T02:05:28.013Z,23.00
2023-05-21T02:07:54.878Z,23.10
2023-05-21T02:10:21.483Z,23.10
2023-05-21T02:12:48.180Z,23.10
2023-05-21T02:15:17.770Z,23.00
2023-05-21T02:17:45.021Z,23.10
2023-05-21T02:20:12.538Z,23.10
2023-05-21T02:25:19.807Z,23.10
2023-05-21T02:27:53.378Z,23.10
2023-05-21T02:32:51.672Z,23.10
2023-05-21T02:35:18.302Z,23.10
2023-05-21T02:37:45.183Z,23.00
2023-05-21T02:40:12.410Z,23.00
2023-05-21T02:42:41.144Z,23.10
2023-05-21T02:47:41.129Z,23.00
2023-05-21T03:05:19.515Z,23.00
2023-05-21T03:07:46.257Z,23.00
2023-05-21T03:15:16.216Z,23.00
2023-05-21T03:17:44.464Z,23.00
2023-05-21T03:25:25.159Z,23.00
2023-05-21T03:30:23.800Z,23.10
2023-05-21T03:32:51.245Z,23.00
2023-05-21T03:35:17.919Z,23.00
2023-05-21T03:47:51.630Z,23.10
2023-05-21T03:50:18.336Z,23.10
2023-05-21T03:52:44.955Z,23.00
2023-05-21T03:55:11.634Z,23.00
2023-05-21T03:57:38.335Z,23.10
2023-05-21T04:00:06.370Z,23.00
2023-05-21T04:02:33.121Z,23.00
2023-05-21T04:04:59.791Z,23.00
2023-05-21T04:07:27.198Z,23.00
2023-05-21T04:14:56.894Z,23.00
2023-05-21T04:19:55.003Z,23.00
2023-05-21T04:32:30.924Z,23.00
2023-05-21T04:34:57.656Z,23.00
2023-05-21T04:37:27.804Z,23.00
2023-05-21T04:42:26.856Z,23.00
2023-05-21T05:07:46.402Z,23.00
2023-05-21T05:10:12.978Z,23.00
2023-05-21T05:12:39.613Z,23.00
2023-05-21T05:15:06.744Z,23.00
2023-05-21T05:20:08.299Z,23.00
2023-05-21T05:22:34.916Z,23.00
2023-05-21T05:25:01.716Z,23.00
2023-05-21T05:27:28.269Z,23.00
2023-05-21T05:29:54.871Z,22.90
2023-05-21T05:32:21.573Z,22.90
2023-05-21T05:34:48.144Z,22.90
2023-05-21T05:37:14.856Z,22.80
2023-05-21T05:39:41.502Z,22.80
2023-05-21T05:42:08.284Z,22.80
2023-05-21T05:44:34.905Z,22.80
2023-05-21T05:47:01.445Z,22.80
2023-05-21T05:49:28.032Z,22.80
2023-05-21T05:51:55.008Z,22.80
2023-05-21T05:54:21.594Z,22.80
2023-05-21T05:56:48.219Z,22.80
2023-05-21T05:59:14.849Z,22.80
2023-05-21T06:01:42.415Z,22.80
2023-05-21T06:04:09.043Z,22.80
2023-05-21T06:06:36.683Z,22.80
2023-05-21T06:09:03.400Z,22.80
2023-05-21T06:11:30.034Z,22.80
2023-05-21T06:13:56.754Z,22.80
2023-05-21T06:16:23.379Z,22.80
2023-05-21T06:18:49.977Z,22.80
2023-05-21T06:21:16.695Z,22.80
2023-05-21T06:23:43.349Z,22.80
2023-05-21T06:28:41.559Z,22.80
2023-05-21T06:31:08.184Z,22.90
2023-05-21T06:33:34.874Z,22.90
2023-05-21T06:36:01.559Z,22.90
2023-05-21T06:38:28.168Z,22.90
2023-05-21T06:40:54.764Z,22.90
2023-05-21T06:43:21.360Z,22.90
2023-05-21T06:45:48.037Z,22.90
2023-05-21T06:48:16.240Z,22.90
2023-05-21T06:50:43.445Z,22.90
2023-05-21T06:53:10.430Z,22.90
2023-05-21T06:55:37.391Z,22.90
2023-05-21T07:00:35.721Z,22.90
2023-05-21T07:08:05.510Z,22.90
2023-05-21T07:10:32.090Z,22.90
2023-05-21T07:12:58.703Z,22.90
2023-05-21T07:17:56.838Z,22.90
2023-05-21T07:22:55.449Z,22.90
2023-05-21T07:27:53.489Z,22.90
2023-05-21T07:30:20.690Z,22.90
2023-05-21T07:32:47.273Z,22.90
2023-05-21T07:35:13.919Z,22.90
2023-05-21T07:37:40.737Z,22.90
2023-05-21T07:40:07.942Z,22.90
2023-05-21T07:42:35.612Z,22.90
2023-05-21T07:45:02.371Z,22.90
2023-05-21T07:47:29.068Z,22.90
2023-05-21T07:49:55.832Z,22.90
2023-05-21T07:52:22.498Z,22.90
2023-05-21T07:54:49.133Z,22.90
2023-05-21T08:09:54.380Z,23.00
2023-05-21T08:12:21.008Z,23.00
2023-05-21T08:19:50.739Z,23.00
2023-05-21T08:22:17.929Z,23.00
2023-05-21T08:24:44.553Z,23.00
2023-05-21T08:32:15.236Z,23.00
2023-05-21T08:37:13.504Z,23.00
2023-05-21T08:42:35.642Z,23.00
2023-05-21T08:45:06.793Z,23.00
2023-05-21T08:47:36.123Z,23.00
2023-05-21T08:50:09.347Z,23.00
2023-05-21T08:55:09.172Z,23.00
2023-05-21T08:57:36.803Z,23.00
2023-05-21T09:00:06.265Z,23.00
2023-05-21T09:02:34.627Z,23.00
2023-05-21T09:07:42.517Z,23.00
2023-05-21T09:10:12.849Z,23.00
2023-05-21T09:12:39.916Z,23.00
2023-05-21T09:15:07.790Z,23.00
2023-05-21T09:17:34.595Z,23.00
2023-05-21T09:22:49.734Z,23.00
2023-05-21T09:25:17.924Z,23.00
2023-05-21T09:27:44.734Z,23.00
2023-05-21T09:30:15.894Z,23.10
2023-05-21T09:32:44.025Z,23.00
2023-05-21T09:35:14.854Z,23.00
2023-05-21T09:37:47.623Z,23.00
2023-05-21T09:40:21.714Z,23.00
2023-05-21T09:42:53.221Z,23.00
2023-05-21T09:45:24.426Z,23.00
2023-05-21T09:47:52.965Z,23.10
2023-05-21T09:50:25.655Z,23.00
2023-05-21T09:52:55.624Z,23.00
2023-05-21T09:55:23.777Z,23.10
2023-05-21T09:57:51.346Z,23.00
2023-05-21T10:00:21.145Z,23.00
2023-05-21T10:03:09.801Z,23.10
2023-05-21T10:05:37.339Z,23.10
2023-05-21T10:13:14.647Z,23.10
2023-05-21T10:25:57.178Z,23.10
2023-05-21T10:28:24.689Z,23.10
2023-05-21T10:30:53.386Z,23.00
2023-05-21T10:33:22.894Z,23.10
2023-05-21T10:35:52.541Z,23.10
2023-05-21T10:38:22.647Z,23.00
2023-05-21T10:40:49.902Z,23.00
2023-05-21T10:43:45.774Z,23.10
2023-05-21T10:49:33.765Z,23.10
2023-05-21T10:52:34.768Z,23.10
2023-05-21T10:55:21.697Z,23.10
2023-05-21T11:00:44.690Z,23.10
2023-05-21T11:03:14.317Z,23.10
2023-05-21T11:05:50.757Z,23.00
2023-05-21T11:08:24.433Z,23.10
2023-05-21T11:13:45.078Z,23.10
2023-05-21T11:16:18.196Z,23.10
2023-05-21T11:18:47.650Z,23.10
2023-05-21T11:21:15.949Z,23.10
2023-05-21T11:29:06.425Z,23.10
2023-05-21T11:34:29.414Z,23.10
2023-05-21T11:37:23.336Z,23.10
2023-05-21T11:39:51.166Z,23.10
2023-05-21T11:42:39.240Z,23.10
2023-05-21T11:45:06.348Z,23.10
2023-05-21T11:57:42.791Z,23.10
2023-05-21T12:00:15.272Z,23.10
2023-05-21T12:02:53.665Z,23.20
2023-05-21T12:07:54.683Z,23.20
2023-05-21T12:12:54.719Z,23.20
2023-05-21T12:15:24.243Z,23.10
2023-05-21T12:17:52.712Z,23.20
2023-05-21T12:25:23.767Z,23.20
2023-05-21T12:33:02.983Z,23.20
2023-05-21T12:35:30.800Z,23.20
2023-05-21T12:40:37.749Z,23.20
2023-05-21T12:45:39.636Z,23.20
2023-05-21T12:48:06.578Z,23.20
2023-05-21T12:50:33.803Z,23.20
2023-05-21T12:53:00.539Z,23.20
2023-05-21T12:55:27.150Z,23.20
2023-05-21T12:58:08.617Z,23.20
2023-05-21T13:00:36.354Z,23.20
2023-05-21T13:03:06.068Z,23.20
2023-05-21T13:05:33.151Z,23.20
2023-05-21T13:07:59.769Z,23.20
2023-05-21T13:10:26.403Z,23.30
2023-05-21T13:12:53.047Z,23.30
2023-05-21T13:15:20.155Z,23.30
2023-05-21T13:17:49.166Z,23.30
2023-05-21T13:25:28.498Z,23.30
2023-05-21T13:27:55.830Z,23.20
2023-05-21T13:30:22.709Z,23.30
2023-05-21T13:32:49.599Z,23.30
2023-05-21T13:35:16.997Z,23.30
2023-05-21T13:37:44.419Z,23.30
2023-05-21T13:40:16.628Z,23.30
2023-05-21T13:42:45.462Z,23.30
2023-05-21T13:47:47.570Z,23.30
2023-05-21T13:50:14.500Z,23.30
2023-05-21T13:55:12.681Z,23.30
2023-05-21T13:57:40.406Z,23.30
2023-05-21T14:00:09.239Z,23.40
2023-05-21T14:02:36.131Z,23.40
2023-05-21T14:05:02.855Z,23.30
2023-05-21T14:12:33.314Z,23.30
2023-05-21T14:14:59.898Z,23.40
2023-05-21T14:17:26.572Z,23.40
2023-05-21T14:19:53.251Z,23.40
2023-05-21T14:22:19.870Z,23.40
2023-05-21T14:24:47.025Z,23.40
2023-05-21T14:27:15.379Z,23.40
2023-05-21T14:29:42.146Z,23.40
2023-05-21T14:32:08.801Z,23.40
2023-05-21T14:34:35.392Z,23.40
2023-05-21T14:37:01.958Z,23.40
2023-05-21T14:39:28.564Z,23.40
2023-05-21T14:41:55.238Z,23.40
2023-05-21T14:44:21.835Z,23.40
2023-05-21T14:46:48.783Z,23.40
2023-05-21T14:49:15.408Z,23.40
2023-05-21T14:51:43.575Z,23.40
2023-05-21T14:54:10.197Z,23.40
2023-05-21T14:56:36.771Z,23.40
2023-05-21T14:59:03.381Z,23.40
2023-05-21T15:01:30.097Z,23.40
2023-05-21T15:03:58.453Z,23.40
2023-05-21T15:06:25.506Z,23.40
2023-05-21T15:21:29.708Z,23.50
2023-05-21T15:26:27.880Z,23.40
2023-05-21T15:28:54.557Z,23.50
2023-05-21T15:31:21.224Z,23.50
2023-05-21T15:33:47.867Z,23.50
2023-05-21T15:36:14.558Z,23.60
2023-05-21T15:38:41.183Z,23.60
2023-05-21T15:41:07.878Z,23.60
2023-05-21T16:03:48.301Z,23.70
2023-05-21T16:06:15.056Z,23.80
2023-05-21T16:08:41.695Z,23.80
2023-05-21T16:13:39.964Z,23.80
2023-05-21T16:16:06.889Z,23.80
2023-05-21T16:21:05.085Z,23.80
2023-05-21T16:23:33.209Z,23.80
2023-05-21T16:26:00.398Z,23.80
2023-05-21T16:28:27.369Z,23.80
2023-05-21T16:30:54.053Z,23.80
2023-05-21T16:33:20.693Z,23.80
2023-05-21T16:35:47.335Z,23.80
2023-05-21T16:38:14.060Z,23.80
2023-05-21T16:40:40.871Z,23.80
2023-05-21T16:43:08.237Z,23.80
2023-05-21T16:45:39.795Z,23.80
2023-05-21T16:48:06.803Z,23.80
2023-05-21T16:50:33.904Z,23.80
2023-05-21T16:53:02.418Z,23.80
2023-05-21T16:55:33.677Z,23.70
2023-05-21T16:58:04.996Z,23.80
2023-05-21T17:03:04.060Z,23.80
2023-05-21T17:05:30.949Z,23.80
2023-05-21T17:07:57.637Z,23.80
2023-05-21T17:10:25.109Z,23.80
2023-05-21T17:12:52.186Z,23.80
2023-05-21T17:25:25.148Z,23.80
2023-05-21T17:32:56.390Z,23.80
2023-05-21T17:37:54.747Z,23.80
2023-05-21T17:40:23.637Z,23.80
2023-05-21T17:42:51.426Z,23.80
2023-05-21T17:45:18.478Z,23.80
2023-05-21T17:47:45.282Z,23.80
2023-05-21T17:50:11.997Z,23.80
2023-05-21T17:55:10.990Z,23.80
2023-05-21T17:57:37.643Z,23.80
2023-05-21T18:00:06.593Z,23.80
2023-05-21T18:02:33.207Z,23.80
2023-05-21T18:04:59.947Z,23.80
2023-05-21T18:07:26.628Z,23.80
2023-05-21T18:09:53.273Z,23.80
2023-05-21T18:12:19.895Z,23.80
2023-05-21T18:14:46.516Z,23.80
2023-05-21T18:17:13.148Z,23.80
2023-05-21T18:24:42.970Z,23.80
2023-05-21T18:29:41.029Z,23.80
2023-05-21T18:32:08.224Z,23.90
2023-05-21T18:34:34.898Z,23.80
2023-05-21T18:37:01.985Z,23.80
2023-05-21T18:44:32.726Z,23.90
2023-05-21T18:49:35.268Z,23.90
2023-05-21T18:52:01.973Z,23.90
2023-05-21T18:54:28.566Z,23.90
2023-05-21T18:56:55.247Z,23.80
2023-05-21T18:59:21.854Z,23.90
2023-05-21T19:01:48.704Z,23.90
2023-05-21T19:04:15.971Z,23.90
2023-05-21T19:06:42.521Z,23.90
2023-05-21T19:09:09.105Z,23.90
2023-05-21T19:11:37.367Z,23.90
2023-05-21T19:14:04.672Z,23.90
2023-05-21T19:16:31.460Z,23.90
2023-05-21T19:21:30.058Z,23.90
2023-05-21T19:23:56.726Z,23.80
2023-05-21T19:26:23.529Z,23.90
2023-05-21T19:28:54.342Z,23.90
2023-05-21T19:31:22.657Z,23.90
2023-05-21T19:33:49.472Z,23.90
2023-05-21T19:36:16.289Z,23.90
2023-05-21T19:38:53.399Z,23.90
2023-05-21T19:46:19.061Z,23.90
2023-05-21T19:53:40.574Z,23.90
2023-05-21T20:01:07.877Z,23.90
2023-05-21T20:08:37.513Z,23.90
2023-05-21T20:11:04.315Z,23.90
2023-05-21T20:23:39.678Z,23.90
2023-05-21T20:31:04.695Z,23.90
2023-05-21T20:33:32.786Z,23.90
2023-05-21T20:40:57.495Z,24.00
2023-05-21T20:43:24.669Z,23.90
2023-05-21T20:45:59.312Z,23.90
2023-05-21T20:53:29.020Z,24.00
2023-05-21T20:58:23.962Z,24.00
2023-05-21T21:00:50.823Z,23.90
2023-05-21T21:03:18.548Z,23.90
2023-05-21T21:05:45.540Z,23.90
2023-05-21T21:08:12.358Z,23.90
2023-05-21T21:10:41.348Z,23.90
2023-05-21T21:15:36.272Z,24.00
2023-05-21T21:18:03.548Z,23.90
2023-05-21T21:27:53.126Z,24.00
2023-05-21T21:30:19.866Z,23.90
2023-05-21T21:32:47.522Z,24.00
2023-05-21T21:37:46.035Z,23.90
2023-05-21T21:42:42.067Z,23.90
2023-05-21T21:45:09.474Z,24.00
2023-05-21T21:47:36.168Z,23.90
2023-05-21T21:57:38.884Z,24.00
2023-05-21T22:00:17.235Z,23.90
2023-05-21T22:02:46.372Z,24.00
2023-05-21T22:07:47.592Z,24.00
2023-05-21T22:10:18.724Z,24.00
2023-05-21T22:15:20.367Z,24.00
2023-05-21T22:17:48.403Z,24.00
2023-05-21T22:20:17.291Z,24.00
2023-05-21T22:22:45.810Z,24.00
2023-05-21T22:25:12.435Z,24.00
2023-05-21T22:27:40.084Z,24.00
2023-05-21T22:30:07.320Z,24.00
2023-05-21T22:32:33.955Z,24.00
2023-05-21T22:35:00.611Z,24.00
2023-05-21T22:37:27.930Z,24.00
2023-05-21T22:39:54.585Z,24.00
2023-05-21T22:42:21.211Z,24.00
2023-05-21T22:44:47.935Z,24.00
2023-05-21T22:52:18.462Z,24.00
2023-05-21T22:54:45.069Z,24.00
2023-05-21T23:02:17.470Z,24.00
2023-05-21T23:04:44.801Z,24.00
2023-05-21T23:07:12.074Z,24.00
2023-05-21T23:09:38.788Z,24.00
2023-05-21T23:12:05.900Z,24.00
2023-05-21T23:14:32.489Z,24.00
2023-05-21T23:22:05.098Z,24.00
2023-05-21T23:24:34.903Z,24.00
2023-05-21T23:29:34.398Z,24.00
2023-05-21T23:34:32.581Z,24.00
2023-05-21T23:39:30.851Z,24.00
2023-05-21T23:44:28.964Z,24.00
2023-05-21T23:54:30.619Z,24.00
